PWSweather.com
Personal Weather Stations
Station Observations
WATERF01
WaterfordIE

WaterfordIE

Lat: 52.2412507, Lon: -7.1414691

Elevation: 65

Station Type: Davis Vantage Vue

www.waterfordweather.com

High Low Average
Temperature 47.4°F8.6°C 38.5°F3.6°C 43.8°F6.6°C
Dew Point 46.4°F8.0°C 37.2°F2.9°C 41.8°F5.4°C
Winds 11.5 mph 18.5 kmh Calm Calm 4.0 mph W6.4 kmh W
Wind Gusts 19.6 mph31.5 kmh -- 7.0 mph11.3 kmh
Humidity 99% 87% 93%
Pressure 30.27 in1025.1 mb 29.89 in1012.2 mb -
Precipitation 0.06 in1.5 mm - -
Hour Temp Dew Point Humidity Winds Wind Gusts Pressure Precip Precip Rate Daily Precip Total
12:00 AM 42.9°F6.1°C 40.2°F4.6°C 90% 8.1 mph NW13.0 kmh NW 13.8 mph22.2 kmh 29.89 in1012.2 mb - 0.00 in0.0 mm 0.00 in0.0 mm
12:10 AM 43.1°F6.2°C 40.1°F4.5°C 89% 10.4 mph NW16.7 kmh NW 19.6 mph31.5 kmh 29.90 in1012.5 mb - 0.00 in0.0 mm 0.00 in0.0 mm
12:20 AM 42.9°F6.1°C 39.9°F4.4°C 89% 6.9 mph NW11.1 kmh NW 11.5 mph18.5 kmh 29.91 in1012.9 mb - 0.00 in0.0 mm 0.00 in0.0 mm
12:30 AM 42.8°F6.0°C 40.1°F4.5°C 90% 9.2 mph NW14.8 kmh NW 12.7 mph20.4 kmh 29.90 in1012.5 mb - 0.00 in0.0 mm 0.00 in0.0 mm
12:40 AM 42.7°F5.9°C 40.0°F4.4°C 90% 8.1 mph NW13.0 kmh NW 13.8 mph22.2 kmh 29.91 in1012.9 mb - 0.00 in0.0 mm 0.00 in0.0 mm
12:50 AM 42.6°F5.9°C 39.9°F4.4°C 90% 8.1 mph NW13.0 kmh NW 13.8 mph22.2 kmh 29.91 in1012.9 mb - 0.00 in0.0 mm 0.00 in0.0 mm
01:00 AM 42.7°F5.9°C 40.3°F4.6°C 91% 8.1 mph NW13.0 kmh NW 11.5 mph18.5 kmh 29.92 in1013.2 mb - 0.00 in0.0 mm 0.00 in0.0 mm
01:10 AM 42.6°F5.9°C 40.2°F4.6°C 91% 5.8 mph NW9.3 kmh NW 12.7 mph20.4 kmh 29.92 in1013.2 mb - 0.00 in0.0 mm 0.00 in0.0 mm
01:20 AM 42.7°F5.9°C 40.2°F4.6°C 91% 8.1 mph NNW13.0 kmh NNW 11.5 mph18.5 kmh 29.93 in1013.5 mb - 0.00 in0.0 mm 0.00 in0.0 mm
01:30 AM 42.7°F5.9°C 40.2°F4.6°C 91% 4.6 mph NNW7.4 kmh NNW 11.5 mph18.5 kmh 29.94 in1013.9 mb - 0.00 in0.0 mm 0.00 in0.0 mm
01:40 AM 42.7°F5.9°C 40.2°F4.6°C 91% 4.6 mph NNW7.4 kmh NNW 6.9 mph11.1 kmh 29.95 in1014.2 mb - 0.00 in0.0 mm 0.00 in0.0 mm
01:50 AM 42.7°F5.9°C 40.2°F4.6°C 91% 4.6 mph NNW7.4 kmh NNW 11.5 mph18.5 kmh 29.95 in1014.2 mb - 0.00 in0.0 mm 0.00 in0.0 mm
02:00 AM 42.8°F6.0°C 40.3°F4.6°C 91% 8.1 mph NW13.0 kmh NW 13.8 mph22.2 kmh 29.96 in1014.6 mb - 0.00 in0.0 mm 0.00 in0.0 mm
02:10 AM 43.0°F6.1°C 40.6°F4.8°C 91% 10.4 mph NW16.7 kmh NW 16.1 mph25.9 kmh 29.97 in1014.9 mb - 0.00 in0.0 mm 0.00 in0.0 mm
02:20 AM 43.1°F6.2°C 40.4°F4.7°C 90% 11.5 mph NW18.5 kmh NW 16.1 mph25.9 kmh 29.98 in1015.2 mb - 0.00 in0.0 mm 0.00 in0.0 mm
02:30 AM 43.1°F6.2°C 40.4°F4.7°C 90% 9.2 mph NW14.8 kmh NW 13.8 mph22.2 kmh 29.99 in1015.6 mb - 0.00 in0.0 mm 0.00 in0.0 mm
02:40 AM 43.1°F6.2°C 40.7°F4.8°C 91% 9.2 mph NW14.8 kmh NW 12.7 mph20.4 kmh 29.99 in1015.6 mb - 0.00 in0.0 mm 0.00 in0.0 mm
02:50 AM 43.0°F6.1°C 40.6°F4.8°C 91% 6.9 mph NW11.1 kmh NW 12.7 mph20.4 kmh 30.00 in1015.9 mb - 0.00 in0.0 mm 0.00 in0.0 mm
03:00 AM 43.0°F6.1°C 40.6°F4.8°C 91% 5.8 mph NNW9.3 kmh NNW 8.1 mph13.0 kmh 30.01 in1016.3 mb - 0.00 in0.0 mm 0.00 in0.0 mm
03:10 AM 42.9°F6.1°C 40.5°F4.7°C 91% 9.2 mph NW14.8 kmh NW 16.1 mph25.9 kmh 30.01 in1016.3 mb - 0.00 in0.0 mm 0.00 in0.0 mm
03:20 AM 42.8°F6.0°C 40.4°F4.7°C 91% 9.2 mph NW14.8 kmh NW 11.5 mph18.5 kmh 30.01 in1016.3 mb - 0.00 in0.0 mm 0.00 in0.0 mm
03:30 AM 42.5°F5.8°C 40.3°F4.6°C 92% 5.8 mph NW9.3 kmh NW 13.8 mph22.2 kmh 30.02 in1016.6 mb - 0.00 in0.0 mm 0.00 in0.0 mm
03:40 AM 42.4°F5.8°C 40.2°F4.6°C 92% 6.9 mph NW11.1 kmh NW 11.5 mph18.5 kmh 30.02 in1016.6 mb - 0.00 in0.0 mm 0.00 in0.0 mm
03:50 AM 42.2°F5.7°C 40.0°F4.4°C 92% 5.8 mph NNW9.3 kmh NNW 9.2 mph14.8 kmh 30.02 in1016.6 mb - 0.00 in0.0 mm 0.00 in0.0 mm
04:00 AM 42.0°F5.6°C 40.1°F4.5°C 93% 6.9 mph NNW11.1 kmh NNW 12.7 mph20.4 kmh 30.03 in1016.9 mb - 0.00 in0.0 mm 0.00 in0.0 mm
04:10 AM 41.9°F5.5°C 40.0°F4.4°C 93% 8.1 mph NW13.0 kmh NW 12.7 mph20.4 kmh 30.04 in1017.3 mb - 0.00 in0.0 mm 0.00 in0.0 mm
04:20 AM 41.9°F5.5°C 40.0°F4.4°C 93% 5.8 mph NW9.3 kmh NW 9.2 mph14.8 kmh 30.04 in1017.3 mb - 0.00 in0.0 mm 0.00 in0.0 mm
04:30 AM 41.8°F5.4°C 39.9°F4.4°C 93% 4.6 mph NW7.4 kmh NW 9.2 mph14.8 kmh 30.05 in1017.6 mb - 0.00 in0.0 mm 0.00 in0.0 mm
04:40 AM 41.6°F5.3°C 39.7°F4.3°C 93% 4.6 mph NNW7.4 kmh NNW 6.9 mph11.1 kmh 30.05 in1017.6 mb - 0.00 in0.0 mm 0.00 in0.0 mm
04:50 AM 41.6°F5.3°C 40.0°F4.4°C 94% 6.9 mph NW11.1 kmh NW 9.2 mph14.8 kmh 30.06 in1017.9 mb - 0.00 in0.0 mm 0.00 in0.0 mm
05:00 AM 41.5°F5.3°C 39.9°F4.4°C 94% 2.3 mph NW3.7 kmh NW 5.8 mph9.3 kmh 30.07 in1018.3 mb - 0.00 in0.0 mm 0.00 in0.0 mm
05:10 AM 41.3°F5.2°C 39.7°F4.3°C 94% 2.3 mph NNW3.7 kmh NNW 5.8 mph9.3 kmh 30.08 in1018.6 mb - 0.00 in0.0 mm 0.00 in0.0 mm
05:20 AM 41.2°F5.1°C 39.6°F4.2°C 94% Calm Calm -- 30.09 in1019.0 mb - 0.00 in0.0 mm 0.00 in0.0 mm
05:30 AM 40.7°F4.8°C 39.1°F3.9°C 94% 1.2 mph WNW1.9 kmh WNW 4.6 mph7.4 kmh 30.10 in1019.3 mb - 0.00 in0.0 mm 0.00 in0.0 mm
05:40 AM 40.5°F4.7°C 39.2°F4.0°C 95% 1.2 mph W1.9 kmh W 2.3 mph3.7 kmh 30.10 in1019.3 mb - 0.00 in0.0 mm 0.00 in0.0 mm
05:50 AM 40.8°F4.9°C 39.5°F4.2°C 95% 3.5 mph NW5.6 kmh NW 5.8 mph9.3 kmh 30.10 in1019.3 mb - 0.00 in0.0 mm 0.00 in0.0 mm
06:00 AM 41.2°F5.1°C 39.9°F4.4°C 95% 5.8 mph NW9.3 kmh NW 8.1 mph13.0 kmh 30.10 in1019.3 mb - 0.00 in0.0 mm 0.00 in0.0 mm
06:10 AM 41.3°F5.2°C 40.0°F4.4°C 95% 3.5 mph NW5.6 kmh NW 6.9 mph11.1 kmh 30.11 in1019.6 mb - 0.00 in0.0 mm 0.00 in0.0 mm
06:20 AM 41.3°F5.2°C 40.0°F4.4°C 95% 1.2 mph NW1.9 kmh NW 2.3 mph3.7 kmh 30.12 in1020.0 mb - 0.00 in0.0 mm 0.00 in0.0 mm
06:30 AM 41.1°F5.1°C 39.8°F4.3°C 95% Calm Calm -- 30.12 in1020.0 mb - 0.00 in0.0 mm 0.00 in0.0 mm
06:40 AM 40.7°F4.8°C 39.4°F4.1°C 95% Calm Calm -- 30.13 in1020.3 mb - 0.00 in0.0 mm 0.00 in0.0 mm
06:50 AM 39.8°F4.3°C 38.3°F3.5°C 94% Calm Calm -- 30.14 in1020.7 mb - 0.00 in0.0 mm 0.00 in0.0 mm
07:00 AM 38.9°F3.8°C 37.6°F3.1°C 95% Calm Calm -- 30.14 in1020.7 mb - 0.00 in0.0 mm 0.00 in0.0 mm
07:10 AM 39.0°F3.9°C 37.7°F3.2°C 95% Calm Calm -- 30.15 in1021.0 mb - 0.00 in0.0 mm 0.00 in0.0 mm
07:20 AM 38.5°F3.6°C 37.2°F2.9°C 95% Calm Calm -- 30.16 in1021.3 mb - 0.00 in0.0 mm 0.00 in0.0 mm
07:30 AM 38.9°F3.8°C 37.6°F3.1°C 95% Calm Calm -- 30.17 in1021.7 mb - 0.00 in0.0 mm 0.00 in0.0 mm
07:40 AM 39.0°F3.9°C 37.7°F3.2°C 95% Calm Calm -- 30.17 in1021.7 mb - 0.00 in0.0 mm 0.00 in0.0 mm
07:50 AM 38.9°F3.8°C 37.6°F3.1°C 95% Calm Calm 2.3 mph3.7 kmh 30.18 in1022.0 mb - 0.00 in0.0 mm 0.00 in0.0 mm
08:00 AM 39.1°F3.9°C 38.1°F3.4°C 96% 1.2 mph N1.9 kmh N 5.8 mph9.3 kmh 30.18 in1022.0 mb - 0.00 in0.0 mm 0.00 in0.0 mm
08:10 AM 39.3°F4.1°C 38.5°F3.6°C 97% 1.2 mph NNW1.9 kmh NNW 4.6 mph7.4 kmh 30.19 in1022.4 mb - 0.00 in0.0 mm 0.00 in0.0 mm
08:20 AM 39.5°F4.2°C 38.7°F3.7°C 97% 1.2 mph NW1.9 kmh NW 2.3 mph3.7 kmh 30.19 in1022.4 mb - 0.00 in0.0 mm 0.00 in0.0 mm
08:30 AM 40.0°F4.4°C 39.2°F4.0°C 97% 3.5 mph NW5.6 kmh NW 4.6 mph7.4 kmh 30.19 in1022.4 mb - 0.00 in0.0 mm 0.00 in0.0 mm
08:40 AM 40.0°F4.4°C 39.2°F4.0°C 97% 2.3 mph NNW3.7 kmh NNW 5.8 mph9.3 kmh 30.20 in1022.7 mb - 0.00 in0.0 mm 0.00 in0.0 mm
08:50 AM 40.0°F4.4°C 39.2°F4.0°C 97% 2.3 mph NW3.7 kmh NW 5.8 mph9.3 kmh 30.21 in1023.0 mb - 0.00 in0.0 mm 0.00 in0.0 mm
09:00 AM 40.4°F4.7°C 39.6°F4.2°C 97% 2.3 mph WNW3.7 kmh WNW 5.8 mph9.3 kmh 30.21 in1023.0 mb - 0.00 in0.0 mm 0.00 in0.0 mm
09:10 AM 40.8°F4.9°C 40.0°F4.4°C 97% 4.6 mph NW7.4 kmh NW 8.1 mph13.0 kmh 30.21 in1023.0 mb - 0.00 in0.0 mm 0.00 in0.0 mm
09:20 AM 41.1°F5.1°C 40.3°F4.6°C 97% 4.6 mph NNW7.4 kmh NNW 6.9 mph11.1 kmh 30.21 in1023.0 mb - 0.00 in0.0 mm 0.00 in0.0 mm
09:30 AM 41.1°F5.1°C 40.0°F4.4°C 96% 1.2 mph WNW1.9 kmh WNW 2.3 mph3.7 kmh 30.21 in1023.0 mb - 0.00 in0.0 mm 0.00 in0.0 mm
09:40 AM 41.2°F5.1°C 40.1°F4.5°C 96% Calm Calm -- 30.21 in1023.0 mb - 0.00 in0.0 mm 0.00 in0.0 mm
09:50 AM 41.3°F5.2°C 40.2°F4.6°C 96% Calm Calm -- 30.21 in1023.0 mb - 0.00 in0.0 mm 0.00 in0.0 mm
10:00 AM 41.2°F5.1°C 40.1°F4.5°C 96% 3.5 mph WSW5.6 kmh WSW 5.8 mph9.3 kmh 30.22 in1023.4 mb - 0.00 in0.0 mm 0.00 in0.0 mm
10:10 AM 41.2°F5.1°C 40.2°F4.6°C 96% 2.3 mph NW3.7 kmh NW 4.6 mph7.4 kmh 30.23 in1023.7 mb - 0.00 in0.0 mm 0.00 in0.0 mm
10:20 AM 42.1°F5.6°C 41.0°F5.0°C 96% 2.3 mph NW3.7 kmh NW 4.6 mph7.4 kmh 30.23 in1023.7 mb - 0.00 in0.0 mm 0.00 in0.0 mm
10:30 AM 42.4°F5.8°C 41.1°F5.1°C 95% 2.3 mph W3.7 kmh W 5.8 mph9.3 kmh 30.24 in1024.0 mb - 0.00 in0.0 mm 0.00 in0.0 mm
10:40 AM 42.8°F6.0°C 41.4°F5.2°C 95% 2.3 mph NW3.7 kmh NW 5.8 mph9.3 kmh 30.24 in1024.0 mb - 0.00 in0.0 mm 0.00 in0.0 mm
10:50 AM 43.3°F6.3°C 41.4°F5.2°C 93% 2.3 mph NW3.7 kmh NW 4.6 mph7.4 kmh 30.24 in1024.0 mb - 0.00 in0.0 mm 0.00 in0.0 mm
11:00 AM 44.0°F6.7°C 42.1°F5.6°C 93% 2.3 mph NW3.7 kmh NW 2.3 mph3.7 kmh 30.24 in1024.0 mb - 0.00 in0.0 mm 0.00 in0.0 mm
11:10 AM 44.5°F6.9°C 42.3°F5.7°C 92% 5.8 mph WNW9.3 kmh WNW 6.9 mph11.1 kmh 30.24 in1024.0 mb - 0.00 in0.0 mm 0.00 in0.0 mm
11:20 AM 44.7°F7.1°C 42.2°F5.7°C 91% 3.5 mph WNW5.6 kmh WNW 5.8 mph9.3 kmh 30.24 in1024.0 mb - 0.00 in0.0 mm 0.00 in0.0 mm
11:30 AM 44.8°F7.1°C 42.4°F5.8°C 91% 2.3 mph NW3.7 kmh NW 5.8 mph9.3 kmh 30.24 in1024.0 mb - 0.00 in0.0 mm 0.00 in0.0 mm
11:40 AM 45.5°F7.5°C 42.7°F5.9°C 90% 4.6 mph NW7.4 kmh NW 11.5 mph18.5 kmh 30.24 in1024.0 mb - 0.00 in0.0 mm 0.00 in0.0 mm
11:50 AM 45.8°F7.7°C 42.7°F5.9°C 89% Calm Calm 4.6 mph7.4 kmh 30.23 in1023.7 mb - 0.00 in0.0 mm 0.00 in0.0 mm
12:00 PM 45.9°F7.7°C 42.8°F6.0°C 89% 3.5 mph NW5.6 kmh NW 5.8 mph9.3 kmh 30.23 in1023.7 mb - 0.00 in0.0 mm 0.00 in0.0 mm
12:10 PM 46.0°F7.8°C 42.9°F6.1°C 89% Calm Calm -- 30.23 in1023.7 mb - 0.00 in0.0 mm 0.00 in0.0 mm
12:20 PM 46.0°F7.8°C 42.9°F6.1°C 89% 1.2 mph W1.9 kmh W 5.8 mph9.3 kmh 30.23 in1023.7 mb - 0.00 in0.0 mm 0.00 in0.0 mm
12:30 PM 46.2°F7.9°C 43.1°F6.2°C 89% 1.2 mph W1.9 kmh W 2.3 mph3.7 kmh 30.24 in1024.0 mb - 0.00 in0.0 mm 0.00 in0.0 mm
12:40 PM 46.3°F7.9°C 43.2°F6.2°C 89% Calm Calm -- 30.24 in1024.0 mb - 0.00 in0.0 mm 0.00 in0.0 mm
12:50 PM 46.7°F8.2°C 43.6°F6.4°C 89% Calm Calm -- 30.24 in1024.0 mb - 0.00 in0.0 mm 0.00 in0.0 mm
01:00 PM 46.7°F8.2°C 43.3°F6.3°C 88% Calm Calm -- 30.24 in1024.0 mb - 0.00 in0.0 mm 0.00 in0.0 mm
01:10 PM 46.8°F8.2°C 43.4°F6.3°C 88% Calm Calm -- 30.24 in1024.0 mb - 0.00 in0.0 mm 0.00 in0.0 mm
01:20 PM 47.1°F8.4°C 43.7°F6.5°C 88% Calm Calm -- 30.24 in1024.0 mb - 0.00 in0.0 mm 0.00 in0.0 mm
01:30 PM 47.3°F8.5°C 43.6°F6.4°C 87% Calm Calm -- 30.23 in1023.7 mb - 0.00 in0.0 mm 0.00 in0.0 mm
01:40 PM 47.2°F8.4°C 43.8°F6.6°C 88% Calm Calm -- 30.23 in1023.7 mb - 0.00 in0.0 mm 0.00 in0.0 mm
01:50 PM 47.4°F8.6°C 44.0°F6.7°C 88% Calm Calm -- 30.23 in1023.7 mb - 0.00 in0.0 mm 0.00 in0.0 mm
02:00 PM 47.4°F8.6°C 44.3°F6.8°C 89% 1.2 mph WNW1.9 kmh WNW 5.8 mph9.3 kmh 30.24 in1024.0 mb - 0.00 in0.0 mm 0.00 in0.0 mm
02:10 PM 47.3°F8.5°C 44.2°F6.8°C 89% 1.2 mph WSW1.9 kmh WSW 4.6 mph7.4 kmh 30.23 in1023.7 mb - 0.00 in0.0 mm 0.00 in0.0 mm
02:20 PM 47.3°F8.5°C 44.2°F6.8°C 89% Calm Calm -- 30.24 in1024.0 mb - 0.00 in0.0 mm 0.00 in0.0 mm
02:30 PM 47.3°F8.5°C 44.2°F6.8°C 89% 1.2 mph NNW1.9 kmh NNW 4.6 mph7.4 kmh 30.23 in1023.7 mb - 0.00 in0.0 mm 0.00 in0.0 mm
02:40 PM 47.3°F8.5°C 44.5°F6.9°C 90% 1.2 mph WSW1.9 kmh WSW 2.3 mph3.7 kmh 30.23 in1023.7 mb - 0.00 in0.0 mm 0.00 in0.0 mm
02:50 PM 47.2°F8.4°C 44.4°F6.9°C 90% Calm Calm 1.2 mph1.9 kmh 30.23 in1023.7 mb - 0.00 in0.0 mm 0.00 in0.0 mm
03:00 PM 47.0°F8.3°C 43.9°F6.6°C 89% 1.2 mph NW1.9 kmh NW 2.3 mph3.7 kmh 30.23 in1023.7 mb - 0.00 in0.0 mm 0.00 in0.0 mm
03:10 PM 46.8°F8.2°C 43.7°F6.5°C 89% Calm Calm -- 30.23 in1023.7 mb - 0.00 in0.0 mm 0.00 in0.0 mm
03:20 PM 46.6°F8.1°C 43.5°F6.4°C 89% Calm Calm -- 30.23 in1023.7 mb - 0.00 in0.0 mm 0.00 in0.0 mm
03:30 PM 46.5°F8.1°C 43.7°F6.5°C 90% Calm Calm -- 30.24 in1024.0 mb - 0.00 in0.0 mm 0.00 in0.0 mm
03:40 PM 46.4°F8.0°C 43.6°F6.4°C 90% 1.2 mph W1.9 kmh W 2.3 mph3.7 kmh 30.24 in1024.0 mb - 0.00 in0.0 mm 0.00 in0.0 mm
03:50 PM 46.3°F7.9°C 43.8°F6.6°C 91% 2.3 mph WSW3.7 kmh WSW 5.8 mph9.3 kmh 30.25 in1024.4 mb - 0.00 in0.0 mm 0.00 in0.0 mm
04:00 PM 46.1°F7.8°C 43.3°F6.3°C 90% 2.3 mph WNW3.7 kmh WNW 5.8 mph9.3 kmh 30.26 in1024.7 mb - 0.00 in0.0 mm 0.00 in0.0 mm
04:10 PM 46.0°F7.8°C 43.2°F6.2°C 90% 1.2 mph WNW1.9 kmh WNW 2.3 mph3.7 kmh 30.25 in1024.4 mb - 0.00 in0.0 mm 0.00 in0.0 mm
04:20 PM 45.9°F7.7°C 43.1°F6.2°C 90% Calm Calm -- 30.25 in1024.4 mb - 0.00 in0.0 mm 0.00 in0.0 mm
04:30 PM 45.7°F7.6°C 42.9°F6.1°C 90% 1.2 mph WNW1.9 kmh WNW 2.3 mph3.7 kmh 30.25 in1024.4 mb - 0.00 in0.0 mm 0.00 in0.0 mm
04:40 PM 45.8°F7.7°C 43.0°F6.1°C 90% 2.3 mph W3.7 kmh W 2.3 mph3.7 kmh 30.25 in1024.4 mb - 0.00 in0.0 mm 0.00 in0.0 mm
04:50 PM 45.7°F7.6°C 42.9°F6.1°C 90% 1.2 mph W1.9 kmh W 2.3 mph3.7 kmh 30.25 in1024.4 mb - 0.00 in0.0 mm 0.00 in0.0 mm
05:00 PM 45.6°F7.6°C 43.1°F6.2°C 91% 2.3 mph WSW3.7 kmh WSW 5.8 mph9.3 kmh 30.25 in1024.4 mb - 0.00 in0.0 mm 0.00 in0.0 mm
05:10 PM 45.5°F7.5°C 43.0°F6.1°C 91% Calm Calm -- 30.25 in1024.4 mb - 0.00 in0.0 mm 0.00 in0.0 mm
05:20 PM 45.3°F7.4°C 43.1°F6.2°C 92% Calm Calm -- 30.26 in1024.7 mb - 0.00 in0.0 mm 0.00 in0.0 mm
05:30 PM 45.2°F7.3°C 43.0°F6.1°C 92% Calm Calm -- 30.26 in1024.7 mb - 0.00 in0.0 mm 0.00 in0.0 mm
05:40 PM 45.1°F7.3°C 43.2°F6.2°C 93% 2.3 mph W3.7 kmh W 5.8 mph9.3 kmh 30.26 in1024.7 mb - 0.00 in0.0 mm 0.00 in0.0 mm
05:50 PM 45.1°F7.3°C 43.2°F6.2°C 93% 2.3 mph W3.7 kmh W 2.3 mph3.7 kmh 30.27 in1025.1 mb - 0.00 in0.0 mm 0.00 in0.0 mm
06:00 PM 45.2°F7.3°C 43.3°F6.3°C 93% 3.5 mph WNW5.6 kmh WNW 6.9 mph11.1 kmh 30.27 in1025.1 mb - 0.00 in0.0 mm 0.00 in0.0 mm
06:10 PM 45.3°F7.4°C 43.1°F6.2°C 92% 1.2 mph WSW1.9 kmh WSW 4.6 mph7.4 kmh 30.27 in1025.1 mb - 0.00 in0.0 mm 0.00 in0.0 mm
06:20 PM 45.1°F7.3°C 43.2°F6.2°C 93% Calm Calm -- 30.27 in1025.1 mb - 0.00 in0.0 mm 0.00 in0.0 mm
06:30 PM 45.0°F7.2°C 43.1°F6.2°C 93% 1.2 mph WSW1.9 kmh WSW 2.3 mph3.7 kmh 30.27 in1025.1 mb - 0.00 in0.0 mm 0.00 in0.0 mm
06:40 PM 45.0°F7.2°C 43.1°F6.2°C 93% 2.3 mph WSW3.7 kmh WSW 5.8 mph9.3 kmh 30.27 in1025.1 mb - 0.00 in0.0 mm 0.00 in0.0 mm
06:50 PM 45.1°F7.3°C 43.2°F6.2°C 93% 3.5 mph WSW5.6 kmh WSW 8.1 mph13.0 kmh 30.26 in1024.7 mb - 0.00 in0.0 mm 0.00 in0.0 mm
07:00 PM 45.2°F7.3°C 43.3°F6.3°C 93% 4.6 mph WSW7.4 kmh WSW 6.9 mph11.1 kmh 30.26 in1024.7 mb - 0.00 in0.0 mm 0.00 in0.0 mm
07:10 PM 45.5°F7.5°C 43.3°F6.3°C 92% 5.8 mph W9.3 kmh W 11.5 mph18.5 kmh 30.27 in1025.1 mb - 0.00 in0.0 mm 0.00 in0.0 mm
07:20 PM 45.8°F7.7°C 43.3°F6.3°C 91% 6.9 mph W11.1 kmh W 9.2 mph14.8 kmh 30.27 in1025.1 mb - 0.00 in0.0 mm 0.00 in0.0 mm
07:30 PM 45.8°F7.7°C 43.3°F6.3°C 91% 5.8 mph W9.3 kmh W 8.1 mph13.0 kmh 30.26 in1024.7 mb - 0.00 in0.0 mm 0.00 in0.0 mm
07:40 PM 45.7°F7.6°C 43.2°F6.2°C 91% 5.8 mph W9.3 kmh W 11.5 mph18.5 kmh 30.26 in1024.7 mb - 0.00 in0.0 mm 0.00 in0.0 mm
07:50 PM 45.5°F7.5°C 42.7°F5.9°C 90% 8.1 mph W13.0 kmh W 11.5 mph18.5 kmh 30.27 in1025.1 mb - 0.00 in0.0 mm 0.00 in0.0 mm
08:00 PM 45.3°F7.4°C 42.9°F6.1°C 91% 5.8 mph WNW9.3 kmh WNW 8.1 mph13.0 kmh 30.27 in1025.1 mb - 0.00 in0.0 mm 0.00 in0.0 mm
08:20 PM 45.0°F7.2°C 42.2°F5.7°C 90% 5.8 mph WSW9.3 kmh WSW 8.1 mph13.0 kmh 30.26 in1024.7 mb - 0.00 in0.0 mm 0.00 in0.0 mm
08:30 PM 44.9°F7.2°C 42.1°F5.6°C 90% 4.6 mph W7.4 kmh W 9.2 mph14.8 kmh 30.25 in1024.4 mb - 0.00 in0.0 mm 0.00 in0.0 mm
08:40 PM 45.0°F7.2°C 42.5°F5.8°C 91% 5.8 mph W9.3 kmh W 13.8 mph22.2 kmh 30.25 in1024.4 mb - 0.00 in0.0 mm 0.00 in0.0 mm
08:50 PM 45.2°F7.3°C 43.0°F6.1°C 92% 6.9 mph NW11.1 kmh NW 11.5 mph18.5 kmh 30.24 in1024.0 mb - 0.00 in0.0 mm 0.00 in0.0 mm
09:00 PM 45.3°F7.4°C 43.1°F6.2°C 92% 5.8 mph WNW9.3 kmh WNW 11.5 mph18.5 kmh 30.23 in1023.7 mb - 0.00 in0.0 mm 0.00 in0.0 mm
09:10 PM 45.3°F7.4°C 43.4°F6.3°C 93% 8.1 mph W13.0 kmh W 12.7 mph20.4 kmh 30.23 in1023.7 mb - 0.00 in0.0 mm 0.00 in0.0 mm
09:20 PM 45.4°F7.4°C 43.5°F6.4°C 93% 5.8 mph WNW9.3 kmh WNW 12.7 mph20.4 kmh 30.23 in1023.7 mb - 0.00 in0.0 mm 0.00 in0.0 mm
09:30 PM 45.4°F7.4°C 43.8°F6.6°C 94% 6.9 mph W11.1 kmh W 16.1 mph25.9 kmh 30.23 in1023.7 mb - 0.00 in0.0 mm 0.00 in0.0 mm
09:40 PM 45.0°F7.2°C 43.1°F6.2°C 93% 6.9 mph WSW11.1 kmh WSW 13.8 mph22.2 kmh 30.22 in1023.4 mb - 0.00 in0.0 mm 0.00 in0.0 mm
09:50 PM 44.9°F7.2°C 43.3°F6.3°C 94% 6.9 mph WSW11.1 kmh WSW 11.5 mph18.5 kmh 30.22 in1023.4 mb - 0.00 in0.0 mm 0.00 in0.0 mm
10:00 PM 45.0°F7.2°C 43.7°F6.5°C 95% 6.9 mph SW11.1 kmh SW 13.8 mph22.2 kmh 30.21 in1023.0 mb - 0.01 in0.3 mm 0.01 in0.3 mm
10:10 PM 45.1°F7.3°C 44.0°F6.7°C 96% 5.8 mph W9.3 kmh W 12.7 mph20.4 kmh 30.21 in1023.0 mb - 0.00 in0.0 mm 0.01 in0.3 mm
10:20 PM 45.2°F7.3°C 44.1°F6.7°C 96% 6.9 mph W11.1 kmh W 15.0 mph24.1 kmh 30.21 in1023.0 mb - 0.00 in0.0 mm 0.01 in0.3 mm
10:30 PM 45.5°F7.5°C 44.7°F7.1°C 97% 8.1 mph SSW13.0 kmh SSW 12.7 mph20.4 kmh 30.21 in1023.0 mb - 0.00 in0.0 mm 0.01 in0.3 mm
10:40 PM 45.7°F7.6°C 44.9°F7.2°C 97% 6.9 mph WNW11.1 kmh WNW 11.5 mph18.5 kmh 30.21 in1023.0 mb - 0.00 in0.0 mm 0.01 in0.3 mm
10:50 PM 45.9°F7.7°C 45.1°F7.3°C 97% 8.1 mph W13.0 kmh W 16.1 mph25.9 kmh 30.21 in1023.0 mb - 0.01 in0.3 mm 0.02 in0.5 mm
11:00 PM 46.0°F7.8°C 45.5°F7.5°C 98% 8.1 mph WSW13.0 kmh WSW 13.8 mph22.2 kmh 30.21 in1023.0 mb - 0.00 in0.0 mm 0.02 in0.5 mm
11:10 PM 46.3°F7.9°C 45.7°F7.6°C 98% 9.2 mph SW14.8 kmh SW 18.4 mph29.6 kmh 30.21 in1023.0 mb - 0.00 in0.0 mm 0.02 in0.5 mm
11:20 PM 46.5°F8.1°C 46.2°F7.9°C 99% 9.2 mph SW14.8 kmh SW 16.1 mph25.9 kmh 30.21 in1023.0 mb - 0.01 in0.3 mm 0.03 in0.8 mm
11:30 PM 46.7°F8.2°C 46.4°F8.0°C 99% 9.2 mph SW14.8 kmh SW 13.8 mph22.2 kmh 30.21 in1023.0 mb - 0.01 in0.3 mm 0.04 in1.0 mm
11:40 PM 46.6°F8.1°C 46.4°F8.0°C 99% 8.1 mph SW13.0 kmh SW 11.5 mph18.5 kmh 30.21 in1023.0 mb - 0.01 in0.3 mm 0.05 in1.3 mm
11:50 PM 46.6°F8.1°C 46.3°F7.9°C 99% 10.4 mph SW16.7 kmh SW 13.8 mph22.2 kmh 30.21 in1023.0 mb - 0.01 in0.3 mm 0.06 in1.5 mm